createdAt,value
2023-04-27T00:00:38.309Z,3.43
2023-04-27T00:03:08.105Z,3.70
2023-04-27T00:05:37.044Z,3.67
2023-04-27T00:08:05.388Z,3.50
2023-04-27T00:10:33.381Z,3.63
2023-04-27T00:13:02.216Z,3.77
2023-04-27T00:15:30.788Z,3.47
2023-04-27T00:17:58.767Z,3.80
2023-04-27T00:20:28.460Z,3.60
2023-04-27T00:22:56.671Z,3.80
2023-04-27T00:25:24.717Z,3.53
2023-04-27T00:27:52.609Z,3.43
2023-04-27T00:30:20.853Z,3.53
2023-04-27T00:32:48.870Z,4.03
2023-04-27T00:35:18.315Z,3.93
2023-04-27T00:37:48.050Z,3.10
2023-04-27T00:40:16.161Z,3.40
2023-04-27T00:42:44.039Z,3.40
2023-04-27T00:45:13.481Z,3.47
2023-04-27T00:47:42.527Z,3.40
2023-04-27T00:50:12.071Z,3.60
2023-04-27T00:52:43.691Z,3.73
2023-04-27T00:55:12.872Z,3.90
2023-04-27T00:57:42.722Z,3.67
2023-04-27T01:00:13.222Z,3.33
2023-04-27T01:02:44.176Z,3.50
2023-04-27T01:05:12.943Z,4.10
2023-04-27T01:07:41.907Z,3.80
2023-04-27T01:10:14.565Z,4.03
2023-04-27T01:12:43.338Z,4.43
2023-04-27T01:15:12.451Z,4.50
2023-04-27T01:17:40.858Z,4.90
2023-04-27T01:20:10.503Z,5.90
2023-04-27T01:22:38.971Z,6.30
2023-04-27T01:25:10.018Z,6.30
2023-04-27T01:27:38.211Z,6.07
2023-04-27T01:30:08.341Z,6.83
2023-04-27T01:32:39.470Z,6.17
2023-04-27T01:35:08.355Z,5.27
2023-04-27T01:37:36.642Z,4.83
2023-04-27T01:40:06.688Z,4.67
2023-04-27T01:42:36.492Z,5.10
2023-04-27T01:45:05.237Z,5.50
2023-04-27T01:47:33.232Z,5.13
2023-04-27T01:50:01.201Z,5.70
2023-04-27T01:52:29.114Z,5.83
2023-04-27T01:54:56.991Z,6.27
2023-04-27T01:57:25.336Z,5.63
2023-04-27T01:59:54.564Z,6.47
2023-04-27T02:02:24.227Z,6.00
2023-04-27T02:04:52.348Z,5.63
2023-04-27T02:07:23.260Z,5.50
2023-04-27T02:09:51.163Z,4.60
2023-04-27T02:12:19.395Z,5.07
2023-04-27T02:14:47.575Z,4.90
2023-04-27T02:17:16.812Z,4.67
2023-04-27T02:19:45.074Z,4.77
2023-04-27T02:22:13.411Z,5.07
2023-04-27T02:24:41.268Z,5.33
2023-04-27T02:27:09.157Z,5.60
2023-04-27T02:29:38.842Z,4.80
2023-04-27T02:32:07.519Z,5.20
2023-04-27T02:34:36.714Z,5.23
2023-04-27T02:37:04.698Z,4.23
2023-04-27T02:39:32.610Z,4.60
2023-04-27T02:42:01.431Z,4.97
2023-04-27T02:44:29.386Z,4.70
2023-04-27T02:46:59.118Z,5.33
2023-04-27T02:49:27.192Z,5.00
2023-04-27T02:51:57.924Z,5.07
2023-04-27T02:54:26.470Z,4.20
2023-04-27T02:56:54.513Z,4.27
2023-04-27T02:59:22.758Z,4.73
2023-04-27T03:01:50.711Z,4.43
2023-04-27T03:04:19.027Z,4.90
2023-04-27T03:06:47.216Z,4.40
2023-04-27T03:09:18.020Z,4.60
2023-04-27T03:11:45.984Z,4.20
2023-04-27T03:14:13.996Z,3.70
2023-04-27T03:16:42.289Z,3.80
2023-04-27T03:19:10.624Z,4.43
2023-04-27T03:21:38.550Z,4.83
2023-04-27T03:24:07.362Z,4.13
2023-04-27T03:26:36.793Z,3.73
2023-04-27T03:29:05.334Z,4.00
2023-04-27T03:31:33.298Z,4.90
2023-04-27T03:34:01.593Z,3.67
2023-04-27T03:36:33.063Z,4.60
2023-04-27T03:39:00.978Z,4.23
2023-04-27T03:41:28.948Z,4.00
2023-04-27T03:43:58.154Z,5.00
2023-04-27T03:46:26.151Z,4.73
2023-04-27T03:48:54.086Z,4.73
2023-04-27T03:51:22.357Z,4.57
2023-04-27T03:53:50.385Z,4.60
2023-04-27T03:56:18.905Z,5.10
2023-04-27T03:58:47.066Z,4.80
2023-04-27T04:01:21.918Z,4.90
2023-04-27T04:03:51.738Z,4.37
2023-04-27T04:06:20.100Z,5.20
2023-04-27T04:08:48.019Z,5.67
2023-04-27T04:11:16.046Z,5.20
2023-04-27T04:13:44.531Z,5.40
2023-04-27T04:16:13.514Z,5.70
2023-04-27T04:18:42.941Z,5.30
2023-04-27T04:21:12.420Z,6.10
2023-04-27T04:23:41.609Z,5.93
2023-04-27T04:26:10.122Z,5.80
2023-04-27T04:28:42.043Z,6.43
2023-04-27T04:31:15.044Z,6.47
2023-04-27T04:33:44.449Z,5.57
2023-04-27T04:36:12.794Z,6.20
2023-04-27T04:38:41.324Z,6.00
2023-04-27T04:41:10.476Z,6.97
2023-04-27T04:43:38.758Z,5.97
2023-04-27T04:46:07.991Z,4.87
2023-04-27T04:48:36.780Z,5.43
2023-04-27T04:51:07.745Z,7.60
2023-04-27T04:53:37.131Z,6.30
2023-04-27T04:56:12.615Z,6.30
2023-04-27T04:58:41.044Z,6.70
2023-04-27T05:01:09.025Z,6.23
2023-04-27T05:03:37.177Z,6.67
2023-04-27T05:06:07.490Z,6.30
2023-04-27T05:08:35.867Z,5.50
2023-04-27T05:11:03.765Z,5.90
2023-04-27T05:13:32.016Z,6.40
2023-04-27T05:16:00.183Z,7.07
2023-04-27T05:18:28.070Z,4.73
2023-04-27T05:20:56.120Z,6.33
2023-04-27T05:23:25.458Z,5.30
2023-04-27T05:25:53.370Z,5.63
2023-04-27T05:28:21.606Z,5.87
2023-04-27T05:30:49.562Z,6.17
2023-04-27T05:33:17.766Z,6.50
2023-04-27T05:35:45.800Z,5.63
2023-04-27T05:38:17.437Z,6.70
2023-04-27T05:40:46.694Z,6.20
2023-04-27T05:43:14.654Z,7.13
2023-04-27T05:45:42.708Z,8.30
2023-04-27T05:48:10.657Z,8.47
2023-04-27T05:50:38.964Z,7.63
2023-04-27T05:53:07.074Z,7.30
2023-04-27T05:55:35.557Z,9.10
2023-04-27T05:58:08.500Z,8.47
2023-04-27T06:00:38.250Z,7.03
2023-04-27T06:03:06.454Z,7.50
2023-04-27T06:05:34.686Z,7.47
2023-04-27T06:08:02.863Z,6.10
2023-04-27T06:10:30.802Z,6.43
2023-04-27T06:13:01.591Z,6.83
2023-04-27T06:15:30.970Z,6.57
2023-04-27T06:18:03.156Z,6.27
2023-04-27T06:20:31.288Z,5.97
2023-04-27T06:23:01.216Z,6.03
2023-04-27T06:25:29.452Z,6.67
2023-04-27T06:27:58.341Z,5.87
2023-04-27T06:30:26.711Z,6.73
2023-04-27T06:32:56.458Z,6.40
2023-04-27T06:35:24.586Z,6.50
2023-04-27T06:37:52.834Z,6.33
2023-04-27T06:40:20.938Z,7.17
2023-04-27T06:42:48.894Z,6.43
2023-04-27T06:45:16.894Z,6.33
2023-04-27T06:47:45.081Z,5.37
2023-04-27T06:50:15.950Z,6.23
2023-04-27T06:52:44.177Z,5.57
2023-04-27T06:55:12.434Z,6.13
2023-04-27T06:57:40.332Z,6.93
2023-04-27T07:00:10.705Z,6.60
2023-04-27T07:02:38.673Z,6.70
2023-04-27T07:05:07.310Z,6.67
2023-04-27T07:07:36.569Z,6.77
2023-04-27T07:10:05.117Z,7.17
2023-04-27T07:12:34.123Z,6.53
2023-04-27T07:15:03.701Z,5.63
2023-04-27T07:17:31.737Z,6.23
2023-04-27T07:19:59.666Z,5.03
2023-04-27T07:22:28.891Z,6.17
2023-04-27T07:24:58.376Z,6.40
2023-04-27T07:27:26.735Z,7.30
2023-04-27T07:29:55.232Z,6.70
2023-04-27T07:32:26.240Z,7.33
2023-04-27T07:34:59.557Z,5.40
2023-04-27T07:37:28.745Z,4.70
2023-04-27T07:39:59.574Z,5.10
2023-04-27T07:42:27.803Z,5.57
2023-04-27T07:44:57.157Z,4.47
2023-04-27T07:47:25.088Z,4.63
2023-04-27T07:49:53.128Z,4.63
2023-04-27T07:52:21.224Z,4.93
2023-04-27T07:54:49.450Z,5.00
2023-04-27T07:57:19.057Z,4.60
2023-04-27T07:59:48.209Z,4.57
2023-04-27T08:02:20.189Z,4.57
2023-04-27T08:04:49.537Z,3.87
2023-04-27T08:07:19.476Z,4.70
2023-04-27T08:09:47.708Z,4.30
2023-04-27T08:12:15.912Z,4.67
2023-04-27T08:14:45.670Z,4.53
2023-04-27T08:17:13.627Z,4.47
2023-04-27T08:19:42.412Z,4.30
2023-04-27T08:22:10.501Z,4.03
2023-04-27T08:24:38.496Z,4.53
2023-04-27T08:27:07.279Z,3.80
2023-04-27T08:29:35.238Z,3.90
2023-04-27T08:32:06.653Z,3.70
2023-04-27T08:34:34.688Z,3.50
2023-04-27T08:37:04.302Z,3.73
2023-04-27T08:39:32.209Z,3.33
2023-04-27T08:42:00.287Z,3.63
2023-04-27T08:44:28.300Z,3.00
2023-04-27T08:46:56.233Z,3.00
2023-04-27T08:49:25.706Z,3.23
2023-04-27T08:51:53.912Z,3.30
2023-04-27T08:54:22.793Z,3.60
2023-04-27T08:56:50.993Z,3.17
2023-04-27T08:59:18.966Z,3.40
2023-04-27T09:01:48.879Z,3.57
2023-04-27T09:04:18.110Z,3.10
2023-04-27T09:06:49.025Z,2.50
2023-04-27T09:09:24.295Z,2.73
2023-04-27T09:11:52.382Z,2.60
2023-04-27T09:14:22.776Z,2.43
2023-04-27T09:16:57.403Z,2.90
2023-04-27T09:19:26.135Z,2.90
2023-04-27T09:22:07.262Z,2.87
2023-04-27T09:24:35.786Z,2.50
2023-04-27T09:27:05.072Z,2.57
2023-04-27T09:29:38.031Z,2.20
2023-04-27T09:32:17.698Z,2.47
2023-04-27T09:34:46.444Z,2.80
2023-04-27T09:37:17.311Z,2.10
2023-04-27T09:39:46.548Z,2.33
2023-04-27T09:42:15.899Z,2.37
2023-04-27T09:44:43.881Z,2.00
2023-04-27T09:47:14.428Z,2.50
2023-04-27T09:49:42.406Z,2.53
2023-04-27T09:52:11.722Z,2.47
2023-04-27T09:54:42.375Z,2.53
2023-04-27T09:57:27.218Z,2.40
2023-04-27T10:00:11.148Z,2.27
2023-04-27T10:02:58.483Z,2.40
2023-04-27T10:05:43.618Z,2.40
2023-04-27T10:08:12.417Z,2.10
2023-04-27T10:10:48.952Z,2.07
2023-04-27T10:13:26.151Z,2.13
2023-04-27T10:15:54.804Z,2.53
2023-04-27T10:18:31.847Z,2.67
2023-04-27T10:21:11.740Z,2.70
2023-04-27T10:23:48.405Z,2.50
2023-04-27T10:26:25.591Z,2.47
2023-04-27T10:29:07.103Z,3.67
2023-04-27T10:31:36.284Z,2.70
2023-04-27T10:34:09.623Z,2.07
2023-04-27T10:36:38.719Z,2.60
2023-04-27T10:39:17.567Z,2.47
2023-04-27T10:41:56.281Z,2.40
2023-04-27T10:44:29.350Z,2.10
2023-04-27T10:47:00.594Z,2.50
2023-04-27T10:49:29.575Z,2.40
2023-04-27T10:52:00.816Z,2.50
2023-04-27T10:54:30.100Z,2.83
2023-04-27T10:57:09.841Z,2.50
2023-04-27T10:59:50.794Z,2.10
2023-04-27T11:02:19.231Z,2.87
2023-04-27T11:04:47.290Z,2.47
2023-04-27T11:07:26.434Z,2.60
2023-04-27T11:09:55.359Z,2.30
2023-04-27T11:12:24.778Z,3.27
2023-04-27T11:14:59.322Z,2.73
2023-04-27T11:17:30.705Z,2.80
2023-04-27T11:19:58.665Z,2.47
2023-04-27T11:22:26.887Z,2.43
2023-04-27T11:24:54.866Z,2.30
2023-04-27T11:27:25.315Z,2.20
2023-04-27T11:29:56.363Z,2.23
2023-04-27T11:32:26.920Z,2.30
2023-04-27T11:34:57.818Z,2.27
2023-04-27T11:37:28.602Z,2.27
2023-04-27T11:40:01.514Z,2.27
2023-04-27T11:42:31.457Z,2.07
2023-04-27T11:45:02.979Z,2.27
2023-04-27T11:47:33.615Z,2.20
2023-04-27T11:50:05.012Z,2.07
2023-04-27T11:52:35.789Z,2.17
2023-04-27T11:55:05.059Z,2.07
2023-04-27T11:57:37.142Z,2.50
2023-04-27T12:00:11.111Z,2.30
2023-04-27T12:02:44.012Z,2.63
2023-04-27T12:05:13.771Z,2.53
2023-04-27T12:07:43.210Z,2.20
2023-04-27T12:10:12.194Z,2.30
2023-04-27T12:12:41.680Z,2.10
2023-04-27T12:15:11.620Z,2.37
2023-04-27T12:17:39.990Z,2.10
2023-04-27T12:20:09.914Z,3.00
2023-04-27T12:22:38.104Z,2.10
2023-04-27T12:25:07.388Z,2.60
2023-04-27T12:27:35.305Z,2.17
2023-04-27T12:30:05.327Z,2.57
2023-04-27T12:32:33.719Z,2.63
2023-04-27T12:35:01.982Z,2.50
2023-04-27T12:37:29.878Z,2.90
2023-04-27T12:39:58.041Z,2.93
2023-04-27T12:42:26.257Z,2.83
2023-04-27T12:44:54.911Z,2.60
2023-04-27T12:49:55.634Z,3.00
2023-04-27T12:52:24.316Z,2.77
2023-04-27T12:54:57.585Z,2.90
2023-04-27T12:57:26.098Z,2.57
2023-04-27T12:59:54.639Z,2.50
2023-04-27T13:02:24.088Z,2.67
2023-04-27T13:04:52.207Z,2.70
2023-04-27T13:07:20.315Z,3.10
2023-04-27T13:09:48.243Z,2.63
2023-04-27T13:12:16.450Z,2.63
2023-04-27T13:14:46.087Z,3.20
2023-04-27T13:17:14.365Z,2.50
2023-04-27T13:19:43.684Z,2.40
2023-04-27T13:22:12.053Z,3.00
2023-04-27T13:24:40.019Z,2.60
2023-04-27T13:27:07.924Z,3.17
2023-04-27T13:29:36.091Z,2.30
2023-04-27T13:32:04.232Z,2.63
2023-04-27T13:34:32.438Z,2.60
2023-04-27T13:37:02.292Z,2.13
2023-04-27T13:39:30.518Z,2.73
2023-04-27T13:41:58.399Z,3.10
2023-04-27T13:44:26.302Z,2.50
2023-04-27T13:46:54.542Z,2.73
2023-04-27T13:49:22.467Z,2.60
2023-04-27T13:51:50.443Z,2.67
2023-04-27T13:54:19.748Z,2.63
2023-04-27T13:56:47.787Z,2.90
2023-04-27T13:59:16.670Z,2.70
2023-04-27T14:01:45.404Z,2.40
2023-04-27T14:04:13.416Z,2.27
2023-04-27T14:06:41.725Z,2.60
2023-04-27T14:09:10.236Z,2.90
2023-04-27T14:11:52.411Z,2.90
2023-04-27T14:14:24.387Z,2.53
2023-04-27T14:16:54.318Z,2.80
2023-04-27T14:19:22.321Z,2.50
2023-04-27T14:21:51.550Z,2.70
2023-04-27T14:24:19.720Z,2.90
2023-04-27T14:26:49.499Z,2.43
2023-04-27T14:29:18.316Z,2.73
2023-04-27T14:31:47.882Z,3.10
2023-04-27T14:34:15.855Z,2.63
2023-04-27T14:36:44.461Z,2.60
2023-04-27T14:39:13.367Z,2.67
2023-04-27T14:41:41.716Z,2.80
2023-04-27T14:44:11.142Z,2.63
2023-04-27T14:46:39.227Z,2.80
2023-04-27T14:49:07.528Z,3.10
2023-04-27T14:51:35.385Z,2.87
2023-04-27T14:54:04.185Z,3.20
2023-04-27T14:56:32.109Z,3.00
2023-04-27T14:59:00.046Z,3.07
2023-04-27T15:01:30.828Z,3.43
2023-04-27T15:03:59.128Z,2.80
2023-04-27T15:06:28.491Z,2.93
2023-04-27T15:08:57.296Z,3.17
2023-04-27T15:11:25.509Z,3.70
2023-04-27T15:13:53.465Z,3.13
2023-04-27T15:16:21.368Z,2.77
2023-04-27T15:18:50.640Z,2.50
2023-04-27T15:21:18.550Z,2.40
2023-04-27T15:23:46.481Z,2.73
2023-04-27T15:26:14.426Z,2.80
2023-04-27T15:28:42.321Z,3.10
2023-04-27T15:31:10.246Z,2.83
2023-04-27T15:33:38.226Z,2.60
2023-04-27T15:36:07.959Z,3.00
2023-04-27T15:38:36.237Z,2.60
2023-04-27T15:41:04.519Z,3.10
2023-04-27T15:43:32.473Z,3.17
2023-04-27T15:46:00.777Z,2.80
2023-04-27T15:48:28.783Z,3.03
2023-04-27T15:50:56.654Z,3.00
2023-04-27T15:53:26.209Z,2.83
2023-04-27T15:55:54.132Z,2.77
2023-04-27T15:58:22.377Z,3.13
2023-04-27T16:00:50.415Z,2.83
2023-04-27T16:03:18.537Z,2.47
2023-04-27T16:05:46.996Z,2.80
2023-04-27T16:08:15.376Z,2.80
2023-04-27T16:10:44.808Z,2.80
2023-04-27T16:13:12.779Z,2.87
2023-04-27T16:15:41.205Z,3.20
2023-04-27T16:18:09.552Z,2.70
2023-04-27T16:20:37.798Z,2.60
2023-04-27T16:23:08.897Z,3.33
2023-04-27T16:25:36.802Z,2.87
2023-04-27T16:28:06.493Z,2.90
2023-04-27T16:30:34.403Z,2.90
2023-04-27T16:33:02.303Z,2.80
2023-04-27T16:35:30.721Z,3.10
2023-04-27T16:37:58.777Z,2.73
2023-04-27T16:40:26.950Z,2.77
2023-04-27T16:42:54.854Z,2.53
2023-04-27T16:45:24.206Z,2.70
2023-04-27T16:47:52.616Z,3.10
2023-04-27T16:50:20.935Z,2.70
2023-04-27T16:52:50.804Z,2.60
2023-04-27T16:55:19.305Z,2.40
2023-04-27T16:57:47.687Z,2.53
2023-04-27T17:00:16.819Z,3.40
2023-04-27T17:02:46.380Z,2.50
2023-04-27T17:05:14.589Z,2.20
2023-04-27T17:07:42.653Z,2.57
2023-04-27T17:10:11.251Z,2.47
2023-04-27T17:12:40.095Z,2.50
2023-04-27T17:15:11.981Z,2.17
2023-04-27T17:17:41.240Z,2.07
2023-04-27T17:20:12.712Z,2.30
2023-04-27T17:22:40.779Z,2.20
2023-04-27T17:25:09.561Z,2.33
2023-04-27T17:27:37.842Z,2.40
2023-04-27T17:30:08.286Z,2.47
2023-04-27T17:32:36.421Z,2.10
2023-04-27T17:35:04.538Z,2.10
2023-04-27T17:37:34.123Z,2.50
2023-04-27T17:40:02.340Z,2.47
2023-04-27T17:42:30.308Z,2.47
2023-04-27T17:44:58.194Z,2.30
2023-04-27T17:47:26.194Z,2.30
2023-04-27T17:49:54.090Z,2.30
2023-04-27T17:52:22.383Z,2.23
2023-04-27T17:54:51.748Z,2.20
2023-04-27T17:57:19.707Z,2.23
2023-04-27T17:59:47.726Z,2.10
2023-04-27T18:02:16.027Z,2.43
2023-04-27T18:04:45.145Z,2.07
2023-04-27T18:07:13.454Z,2.47
2023-04-27T18:09:44.153Z,2.73
2023-04-27T18:12:13.906Z,3.50
2023-04-27T18:14:41.803Z,4.10
2023-04-27T18:17:09.742Z,3.87
2023-04-27T18:19:37.618Z,3.83
2023-04-27T18:22:05.687Z,4.13
2023-04-27T18:24:33.646Z,3.70
2023-04-27T18:27:01.605Z,3.97
2023-04-27T18:29:30.815Z,3.73
2023-04-27T18:32:01.595Z,4.50
2023-04-27T18:34:29.566Z,4.30
2023-04-27T18:36:57.759Z,4.20
2023-04-27T18:39:25.851Z,4.30
2023-04-27T18:41:54.206Z,4.60
2023-04-27T18:44:22.185Z,4.30
2023-04-27T18:46:51.850Z,3.90
2023-04-27T18:49:20.253Z,4.23
2023-04-27T18:51:48.478Z,3.73
2023-04-27T18:54:18.929Z,4.27
2023-04-27T18:56:50.671Z,4.13
2023-04-27T18:59:18.718Z,4.00
2023-04-27T19:01:47.006Z,4.90
2023-04-27T19:04:16.934Z,4.23
2023-04-27T19:06:45.283Z,5.80
2023-04-27T19:09:13.420Z,4.20
2023-04-27T19:11:42.656Z,4.43
2023-04-27T19:14:10.637Z,4.27
2023-04-27T19:16:38.697Z,4.93
2023-04-27T19:19:06.915Z,4.43
2023-04-27T19:21:36.198Z,4.50
2023-04-27T19:24:04.190Z,4.43
2023-04-27T19:26:32.244Z,4.90
2023-04-27T19:29:03.802Z,4.07
2023-04-27T19:31:32.095Z,4.40
2023-04-27T19:34:04.099Z,4.47
2023-04-27T19:36:32.871Z,4.93
2023-04-27T19:39:02.474Z,4.23
2023-04-27T19:41:30.590Z,4.20
2023-04-27T19:43:58.447Z,4.23
2023-04-27T19:46:26.614Z,4.47
2023-04-27T19:48:54.871Z,4.17
2023-04-27T19:51:22.885Z,3.57
2023-04-27T19:53:51.036Z,3.83
2023-04-27T19:56:20.269Z,4.03
2023-04-27T19:58:48.342Z,4.07
2023-04-27T20:01:16.415Z,4.30
2023-04-27T20:03:44.489Z,4.60
2023-04-27T20:06:12.656Z,4.93
2023-04-27T20:08:40.565Z,5.27
2023-04-27T20:11:08.815Z,4.80
2023-04-27T20:13:38.098Z,5.80
2023-04-27T20:16:06.672Z,8.13
2023-04-27T20:18:35.037Z,8.23
2023-04-27T20:21:03.257Z,6.10
2023-04-27T20:23:31.499Z,5.10
2023-04-27T20:25:59.394Z,4.40
2023-04-27T20:28:28.587Z,4.03
2023-04-27T20:30:59.985Z,3.83
2023-04-27T20:33:28.222Z,3.90
2023-04-27T20:36:03.465Z,4.17
2023-04-27T20:38:38.183Z,4.80
2023-04-27T20:41:06.499Z,3.97
2023-04-27T20:43:34.738Z,3.87
2023-04-27T20:46:03.958Z,4.97
2023-04-27T20:48:31.877Z,5.07
2023-04-27T20:51:00.681Z,4.10
2023-04-27T20:53:28.612Z,3.57
2023-04-27T20:55:56.866Z,4.00
2023-04-27T20:58:24.996Z,3.57
2023-04-27T21:00:52.928Z,3.50
2023-04-27T21:03:22.995Z,3.17
2023-04-27T21:05:51.515Z,3.67
2023-04-27T21:08:19.424Z,3.67
2023-04-27T21:10:47.383Z,3.33
2023-04-27T21:13:15.322Z,3.80
2023-04-27T21:15:43.248Z,3.63
2023-04-27T21:18:22.337Z,3.27
2023-04-27T21:20:58.183Z,3.10
2023-04-27T21:23:26.192Z,3.20
2023-04-27T21:25:54.501Z,3.10
2023-04-27T21:28:22.412Z,3.30
2023-04-27T21:30:50.689Z,3.10
2023-04-27T21:33:18.814Z,2.70
2023-04-27T21:35:46.708Z,3.07
2023-04-27T21:38:15.937Z,3.30
2023-04-27T21:40:43.872Z,4.97
2023-04-27T21:43:12.137Z,4.80
2023-04-27T21:45:40.384Z,4.40
2023-04-27T21:48:08.668Z,3.20
2023-04-27T21:50:36.684Z,4.00
2023-04-27T21:53:04.570Z,3.50
2023-04-27T21:55:34.104Z,4.27
2023-04-27T21:58:02.340Z,3.37
2023-04-27T22:00:30.212Z,2.93
2023-04-27T22:02:58.376Z,2.67
2023-04-27T22:05:29.310Z,2.50
2023-04-27T22:07:58.125Z,3.00
2023-04-27T22:10:26.207Z,2.83
2023-04-27T22:12:58.278Z,2.63
2023-04-27T22:15:26.562Z,2.60
2023-04-27T22:17:55.725Z,2.47
2023-04-27T22:20:23.627Z,2.47
2023-04-27T22:22:51.539Z,2.83
2023-04-27T22:25:19.812Z,3.00
2023-04-27T22:27:47.703Z,2.77
2023-04-27T22:30:18.493Z,2.70
2023-04-27T22:32:46.851Z,2.50
2023-04-27T22:35:25.460Z,2.60
2023-04-27T22:37:55.211Z,2.90
2023-04-27T22:40:23.328Z,2.70
2023-04-27T22:42:51.335Z,2.67
2023-04-27T22:45:20.628Z,2.97
2023-04-27T22:47:49.329Z,2.97
2023-04-27T22:50:17.689Z,2.70
2023-04-27T22:52:45.751Z,2.77
2023-04-27T22:55:14.290Z,2.40
2023-04-27T22:57:42.238Z,2.87
2023-04-27T23:00:12.140Z,2.70
2023-04-27T23:02:41.801Z,2.57
2023-04-27T23:05:12.288Z,2.67
2023-04-27T23:07:42.799Z,2.40
2023-04-27T23:10:12.888Z,2.57
2023-04-27T23:12:40.786Z,2.77
2023-04-27T23:15:09.515Z,2.80
2023-04-27T23:17:49.636Z,2.87
2023-04-27T23:22:52.305Z,2.50
2023-04-27T23:25:23.110Z,3.00
2023-04-27T23:27:52.526Z,2.80
2023-04-27T23:30:23.202Z,2.50
2023-04-27T23:32:52.564Z,2.93
2023-04-27T23:35:20.885Z,2.20
2023-04-27T23:37:49.096Z,2.40
2023-04-27T23:40:17.259Z,2.70
2023-04-27T23:42:49.125Z,3.07
2023-04-27T23:45:19.232Z,2.63
2023-04-27T23:47:47.145Z,2.30
2023-04-27T23:50:17.263Z,2.83
2023-04-27T23:52:45.187Z,2.60
2023-04-27T23:55:13.463Z,2.77
2023-04-27T23:57:41.606Z,2.77
